Time;durP1;ratioP1;P1;durP2;ratioP2;P2;SDS_P1;SDS_P2;PMS_P1;PMS_P2;Temp;Humidity;BMP_temperature;BMP_pressure;BME280_temperature;BME280_humidity;BME280_pressure;Samples;Min_cycle;Max_cycle;Signal;HPM_P1;HPM_P2
2022/04/17 00:01:37;;;;;;;10.02;6.88;;;332.80;2329.60;;;;;;4846559;29;20386;-79
2022/04/17 00:04:04;;;;;;;9.35;6.85;;;332.80;2329.60;;;;;;4846476;29;20036;-79
2022/04/17 00:06:30;;;;;;;12.98;7.88;;;332.90;2329.60;;;;;;4846431;29;20352;-80
2022/04/17 00:09:02;;;;;;;13.38;8.57;;;332.90;2329.60;;;;;;4864238;29;20111;-79
2022/04/17 00:11:28;;;;;;;14.70;10.30;;;332.90;2329.60;;;;;;4856942;29;20025;-81
2022/04/17 00:13:59;;;;;;;8.73;6.97;;;332.90;2329.60;;;;;;4846611;29;20050;-78
2022/04/17 00:16:34;;;;;;;10.30;7.05;;;332.90;2329.60;;;;;;4846691;29;20120;-81
2022/04/17 00:19:27;;;;;;;10.18;6.43;;;332.80;2329.60;;;;;;4846209;29;20036;-79
2022/04/17 00:22:09;;;;;;;7.13;5.85;;;332.80;2329.60;;;;;;4846451;29;20362;-81
2022/04/17 00:25:14;;;;;;;8.38;6.70;;;332.80;2329.60;;;;;;4846131;29;20089;-84
2022/04/17 00:27:57;;;;;;;6.68;5.47;;;308.10;2304.00;;;;;;4845654;29;20170;-81
2022/04/17 00:31:06;;;;;;;7.75;5.90;;;308.10;2304.00;;;;;;4845884;29;20548;-82
2022/04/17 00:33:35;;;;;;;7.72;6.63;;;332.90;2329.60;;;;;;4861767;29;20065;-77
2022/04/17 00:36:04;;;;;;;9.07;6.77;;;332.90;2329.60;;;;;;4845189;29;20025;-84
2022/04/17 00:38:30;;;;;;;7.95;6.53;;;332.90;2329.60;;;;;;4846036;29;20269;-81
2022/04/17 00:40:59;;;;;;;7.78;6.85;;;332.90;2329.60;;;;;;4845670;29;20482;-78
2022/04/17 00:46:31;;;;;;;7.53;6.05;;;307.70;2304.00;;;;;;4862269;29;20077;-82
2022/04/17 00:49:26;;;;;;;8.15;6.70;;;332.80;2329.60;;;;;;4845909;29;20532;-83
2022/04/17 00:53:20;;;;;;;8.88;6.72;;;332.80;2329.60;;;;;;4842883;29;20033;-84
2022/04/17 00:55:20;;;;;;;9.02;6.68;;;332.90;2329.60;;;;;;4849361;29;20037;-84
2022/04/17 00:58:07;;;;;;;8.13;6.80;;;332.90;2329.60;;;;;;4845570;29;20104;-85
2022/04/17 01:00:41;;;;;;;6.80;6.10;;;332.90;2329.60;;;;;;4839788;29;20085;-84
2022/04/17 01:03:45;;;;;;;6.93;6.20;;;333.00;2329.60;;;;;;4842292;29;20054;-83
2022/04/17 01:09:55;;;;;;;8.27;7.15;;;333.00;2329.60;;;;;;4832242;29;20041;-81
2022/04/17 01:12:21;;;;;;;8.70;6.70;;;333.00;2329.60;;;;;;4842131;29;20022;-81
2022/04/17 01:14:48;;;;;;;11.43;7.22;;;333.00;2329.60;;;;;;4842051;29;20370;-81
2022/04/17 01:17:14;;;;;;;10.95;6.97;;;333.00;2329.60;;;;;;4841994;29;20022;-83
2022/04/17 01:19:43;;;;;;;8.27;6.38;;;332.90;2329.60;;;;;;4842331;29;20056;-81
2022/04/17 01:22:11;;;;;;;10.80;7.20;;;332.80;2329.60;;;;;;4841975;29;20040;-81
2022/04/17 01:27:26;;;;;;;11.25;7.75;;;332.90;2329.60;;;;;;4843545;29;20535;-81
2022/04/17 01:29:53;;;;;;;10.10;7.05;;;332.80;2329.60;;;;;;4841719;29;20041;-83
2022/04/17 01:32:19;;;;;;;10.18;6.60;;;332.80;2329.60;;;;;;4842162;29;20482;-78
2022/04/17 01:34:52;;;;;;;12.63;7.85;;;332.80;2329.60;;;;;;4841968;29;20030;-81
2022/04/17 01:38:12;;;;;;;;;;;;;;;;;;;;;
2022/04/17 01:40:58;;;;;;;13.23;8.65;;;332.80;2329.60;;;;;;4839655;29;20250;-80
2022/04/17 01:50:21;;;;;;;55.63;37.88;;;332.90;2329.60;;;;;;4784438;29;20439;-80
2022/04/17 01:52:53;;;;;;;26.25;16.75;;;332.90;2329.60;;;;;;4789685;29;20104;-82
2022/04/17 01:58:51;;;;;;;8.55;6.63;;;333.00;2329.60;;;;;;4774737;30;20027;-82
2022/04/17 02:01:23;;;;;;;10.52;6.30;;;333.00;2329.60;;;;;;4827850;29;20053;-82
2022/04/17 02:04:13;;;;;;;11.52;9.88;;;333.00;2329.60;;;;;;4841311;29;20033;-81
2022/04/17 02:07:31;;;;;;;9.73;8.45;;;332.80;2329.60;;;;;;4841828;29;20463;-83
2022/04/17 02:09:35;;;;;;;10.52;7.97;;;332.80;2329.60;;;;;;4832217;29;20095;-81
2022/04/17 02:12:11;;;;;;;9.95;7.63;;;332.80;2329.60;;;;;;4841606;29;20034;-82
2022/04/17 02:14:40;;;;;;;8.00;6.75;;;332.80;2329.60;;;;;;4841886;29;20036;-82
2022/04/17 02:17:06;;;;;;;9.30;7.55;;;332.80;2329.60;;;;;;4841881;29;20374;-81
2022/04/17 02:19:32;;;;;;;10.93;8.27;;;332.80;2329.60;;;;;;4841758;29;20037;-82
2022/04/17 02:21:58;;;;;;;18.33;14.13;;;308.00;2304.00;;;;;;4841413;29;20030;-83
2022/04/17 02:24:24;;;;;;;20.15;13.00;;;308.10;2304.00;;;;;;4841138;29;20106;-82
2022/04/17 02:26:50;;;;;;;19.52;14.50;;;308.10;2304.00;;;;;;4841507;29;20476;-81
2022/04/17 02:29:16;;;;;;;8.63;7.45;;;308.10;2304.00;;;;;;4841563;29;20032;-83
2022/04/17 02:31:42;;;;;;;13.02;9.93;;;308.10;2304.00;;;;;;4841043;29;20018;-80
2022/04/17 02:34:09;;;;;;;11.50;8.18;;;308.00;2304.00;;;;;;4841602;29;20026;-82
2022/04/17 02:36:35;;;;;;;14.50;9.90;;;308.00;2304.00;;;;;;4841326;29;20022;-80
2022/04/17 02:39:01;;;;;;;15.35;10.18;;;308.00;2304.00;;;;;;4841016;29;20382;-83
2022/04/17 02:41:27;;;;;;;17.27;9.07;;;307.80;2304.00;;;;;;4841300;29;20033;-83
2022/04/17 02:43:53;;;;;;;18.05;10.23;;;307.80;2304.00;;;;;;4841547;29;20057;-83
2022/04/17 02:49:04;;;;;;;21.67;13.55;;;307.80;2304.00;;;;;;4842547;29;20059;-83
2022/04/17 02:51:34;;;;;;;10.38;5.78;;;308.00;2304.00;;;;;;4841412;29;20022;-83
2022/04/17 02:54:00;;;;;;;13.57;5.95;;;307.70;2304.00;;;;;;4840872;29;20439;-83
2022/04/17 02:56:30;;;;;;;8.15;4.60;;;307.40;2304.00;;;;;;4841071;29;20030;-83
2022/04/17 02:58:56;;;;;;;9.05;5.63;;;307.30;2304.00;;;;;;4843566;29;20026;-82
2022/04/17 03:11:48;;;;;;;8.38;3.88;;;307.20;2304.00;;;;;;4848798;29;20077;-83
2022/04/17 03:15:20;;;;;;;13.18;5.05;;;282.50;2278.40;;;;;;4863122;29;20034;-83
2022/04/17 03:22:31;;;;;;;9.27;4.47;;;282.50;2278.40;;;;;;4816486;29;20085;-82
2022/04/17 03:25:37;;;;;;;9.43;4.50;;;282.40;2278.40;;;;;;4846649;29;20061;-82
2022/04/17 03:28:59;;;;;;;14.40;5.68;;;282.30;2278.40;;;;;;4862841;29;20045;-82
2022/04/17 03:32:19;;;;;;;12.10;4.38;;;282.30;2278.40;;;;;;4842124;29;20122;-83
2022/04/17 03:35:40;;;;;;;9.15;3.97;;;282.20;2278.40;;;;;;4858751;29;20375;-83
2022/04/17 03:39:32;;;;;;;8.60;4.93;;;282.30;2278.40;;;;;;4788499;30;20092;-83
2022/04/17 03:42:54;;;;;;;7.82;4.00;;;282.20;2278.40;;;;;;4770183;30;20031;-83
2022/04/17 03:49:31;;;;;;;8.00;5.38;;;282.00;2278.40;;;;;;4742292;30;20074;-83
2022/04/17 04:07:06;;;;;;;6.10;3.55;;;281.80;2278.40;;;;;;4717552;30;20101;-83
2022/04/17 04:17:39;;;;;;;15.40;10.07;;;281.70;2278.40;;;;;;4665215;30;20042;-83
2022/04/17 04:20:47;;;;;;;10.25;6.38;;;281.70;2278.40;;;;;;4664933;30;20062;-83
2022/04/17 04:24:06;;;;;;;14.30;7.68;;;281.70;2278.40;;;;;;4666158;30;20041;-83
2022/04/17 04:31:07;;;;;;;7.30;5.18;;;281.70;2278.40;;;;;;4711837;30;20521;-83
2022/04/17 04:33:47;;;;;;;13.45;7.90;;;256.90;2252.80;;;;;;4716598;30;20398;-81
2022/04/17 04:36:50;;;;;;;8.32;4.82;;;256.90;2252.80;;;;;;4715268;30;20040;-83
2022/04/17 04:39:24;;;;;;;10.40;5.20;;;256.70;2252.80;;;;;;4717302;30;20033;-83
2022/04/17 04:42:32;;;;;;;12.77;5.72;;;256.80;2252.80;;;;;;4734841;30;20033;-83
2022/04/17 04:46:15;;;;;;;12.27;7.43;;;256.80;2252.80;;;;;;4744970;30;20032;-84
2022/04/17 04:49:30;;;;;;;8.52;5.47;;;256.50;2252.80;;;;;;4718867;30;20448;-84
2022/04/17 04:52:21;;;;;;;15.07;6.63;;;256.40;2252.80;;;;;;4733742;30;20048;-82
2022/04/17 04:54:53;;;;;;;10.80;6.22;;;256.20;2252.80;;;;;;4733888;30;20036;-83
2022/04/17 04:57:29;;;;;;;9.93;5.20;;;256.20;2252.80;;;;;;4733725;30;20036;-82
2022/04/17 04:59:58;;;;;;;10.80;7.95;;;230.70;2252.80;;;;;;4737470;30;20445;-83
2022/04/17 05:02:26;;;;;;;9.60;5.90;;;231.30;2252.80;;;;;;4769081;30;20048;-83
2022/04/17 05:04:58;;;;;;;9.23;6.28;;;231.30;2252.80;;;;;;4769008;30;20036;-82
2022/04/17 05:07:28;;;;;;;11.05;6.88;;;231.30;2252.80;;;;;;4768918;30;20126;-83
2022/04/17 05:09:58;;;;;;;14.10;6.72;;;231.20;2252.80;;;;;;4769019;30;20481;-83
2022/04/17 05:12:48;;;;;;;18.38;10.27;;;231.20;2252.80;;;;;;4754313;30;20036;-83
2022/04/17 05:15:22;;;;;;;12.82;7.43;;;231.10;2252.80;;;;;;4768942;30;20032;-82
2022/04/17 05:18:24;;;;;;;13.73;8.65;;;231.20;2252.80;;;;;;4769102;30;20531;-82
2022/04/17 05:20:54;;;;;;;13.70;7.53;;;231.20;2252.80;;;;;;4777580;30;20039;-84
2022/04/17 05:23:49;;;;;;;11.82;7.57;;;231.10;2252.80;;;;;;4800256;29;20039;-82
2022/04/17 05:27:03;;;;;;;12.85;8.82;;;231.10;2252.80;;;;;;4796118;29;20464;-84
2022/04/17 05:29:33;;;;;;;14.82;10.13;;;231.10;2252.80;;;;;;4804628;29;20106;-84
2022/04/17 05:32:06;;;;;;;18.15;10.45;;;231.00;2252.80;;;;;;4790083;29;20033;-84
2022/04/17 05:34:41;;;;;;;;;;;231.10;2252.80;;;;;;4790015;29;20023;-85
2022/04/17 05:38:01;;;;;;;13.82;9.23;;;231.10;2252.80;;;;;;4789510;29;20378;-85
2022/04/17 05:41:15;;;;;;;13.00;9.35;;;231.10;2252.80;;;;;;4745310;30;20478;-83
2022/04/17 05:44:20;;;;;;;;;;;231.20;2252.80;;;;;;4716062;30;20032;-84
2022/04/17 05:48:06;;;;;;;14.73;10.15;;;231.30;2252.80;;;;;;4715722;30;19929;-81
2022/04/17 05:51:38;;;;;;;17.85;11.82;;;231.30;2252.80;;;;;;4701312;30;20037;-81
2022/04/17 05:54:27;;;;;;;15.50;10.15;;;256.10;2252.80;;;;;;4646858;30;20389;-81
2022/04/17 05:57:20;;;;;;;20.15;11.20;;;231.20;2252.80;;;;;;4663772;30;20037;-82
2022/04/17 06:03:49;;;;;;;9.98;7.55;;;231.20;2252.80;;;;;;4681055;30;20053;-83
2022/04/17 06:06:36;;;;;;;12.25;8.10;;;231.00;2252.80;;;;;;4681249;30;20038;-83
2022/04/17 06:09:32;;;;;;;11.20;7.97;;;231.00;2252.80;;;;;;4680628;30;20037;-83
2022/04/17 06:12:01;;;;;;;17.38;9.95;;;231.10;2252.80;;;;;;4695327;30;20029;-83
2022/04/17 06:14:57;;;;;;;10.57;7.65;;;231.00;2252.80;;;;;;4692879;30;20042;-84
2022/04/17 06:17:47;;;;;;;16.08;8.43;;;230.90;2252.80;;;;;;4680442;30;20132;-82
2022/04/17 06:20:27;;;;;;;15.13;11.05;;;230.90;2252.80;;;;;;4699176;30;20394;-84
2022/04/17 06:22:55;;;;;;;15.02;9.88;;;230.90;2252.80;;;;;;4716432;30;20029;-83
2022/04/17 06:25:23;;;;;;;18.13;11.23;;;230.70;2252.80;;;;;;4715508;30;20095;-82
2022/04/17 06:27:49;;;;;;;20.02;12.95;;;230.80;2252.80;;;;;;4715783;30;20041;-82
2022/04/17 06:30:20;;;;;;;22.05;13.75;;;230.90;2252.80;;;;;;4700595;30;20056;-83
2022/04/17 06:32:58;;;;;;;16.83;9.20;;;230.80;2252.80;;;;;;4716265;30;20049;-83
2022/04/17 06:35:24;;;;;;;16.73;11.38;;;230.70;2252.80;;;;;;4789200;29;20031;-83
2022/04/17 06:38:01;;;;;;;33.83;18.08;;;230.70;2252.80;;;;;;4792513;29;20018;-84
2022/04/17 06:40:33;;;;;;;17.33;11.05;;;230.70;2252.80;;;;;;4792728;29;20027;-82
2022/04/17 06:43:05;;;;;;;30.67;18.45;;;230.60;2252.80;;;;;;4812145;29;20501;-82
2022/04/17 06:45:35;;;;;;;16.45;11.32;;;230.60;2252.80;;;;;;4847941;29;20038;-82
2022/04/17 06:48:16;;;;;;;13.48;11.45;;;230.60;2252.80;;;;;;4848394;29;20033;-85
2022/04/17 06:50:44;;;;;;;22.33;15.93;;;230.60;2252.80;;;;;;4847807;29;20030;-82
2022/04/17 06:53:11;;;;;;;21.20;13.77;;;230.50;2252.80;;;;;;4848134;29;20029;-83
2022/04/17 06:56:02;;;;;;;18.00;12.23;;;205.70;2252.80;;;;;;4848006;29;20021;-83
2022/04/17 06:59:05;;;;;;;;;;;;;;;;;;;;;
2022/04/17 07:01:32;;;;;;;15.60;11.63;;;205.70;2252.80;;;;;;4864153;29;20352;-83
2022/04/17 07:03:58;;;;;;;39.65;25.30;;;205.70;2252.80;;;;;;4847747;29;20116;-81
2022/04/17 07:06:25;;;;;;;27.33;20.50;;;230.50;2252.80;;;;;;4847231;29;20030;-83
2022/04/17 07:08:51;;;;;;;16.90;14.98;;;205.60;2252.80;;;;;;4847471;29;20050;-82
2022/04/17 07:11:19;;;;;;;21.75;15.15;;;205.40;2252.80;;;;;;4847650;29;20112;-80
2022/04/17 07:13:47;;;;;;;25.83;19.20;;;205.60;2252.80;;;;;;4857433;29;20025;-81
2022/04/17 07:16:13;;;;;;;16.15;12.77;;;205.60;2252.80;;;;;;4852124;29;20025;-83
2022/04/17 07:18:39;;;;;;;22.65;15.43;;;205.50;2252.80;;;;;;4847778;29;20081;-83
2022/04/17 07:21:07;;;;;;;33.05;22.52;;;205.40;2252.80;;;;;;4847913;29;20116;-82
2022/04/17 07:23:33;;;;;;;25.40;17.88;;;205.60;2252.80;;;;;;4847299;29;20375;-81
2022/04/17 07:26:00;;;;;;;21.30;15.52;;;205.30;2252.80;;;;;;4831439;29;20045;-80
2022/04/17 07:28:27;;;;;;;27.27;19.67;;;205.50;2252.80;;;;;;4847361;29;20030;-83
2022/04/17 07:30:56;;;;;;;25.63;16.98;;;205.40;2252.80;;;;;;4832254;29;20034;-80
2022/04/17 07:33:28;;;;;;;21.90;15.27;;;205.20;2252.80;;;;;;4846757;29;20033;-81
2022/04/17 07:35:55;;;;;;;20.17;12.98;;;205.20;2252.80;;;;;;4847311;29;20033;-82
2022/04/17 07:38:27;;;;;;;24.92;17.95;;;205.20;2252.80;;;;;;4847017;29;20021;-81
2022/04/17 07:41:48;;;;;;;15.15;10.88;;;205.10;2252.80;;;;;;4846672;29;20501;-82
2022/04/17 07:44:32;;;;;;;19.05;13.48;;;205.20;2252.80;;;;;;4771901;30;20035;-79
2022/04/17 07:47:04;;;;;;;23.85;17.98;;;205.20;2252.80;;;;;;4772963;30;20039;-81
2022/04/17 07:49:45;;;;;;;16.60;12.48;;;205.20;2252.80;;;;;;4773325;30;20168;-79
2022/04/17 07:52:11;;;;;;;21.88;14.50;;;205.10;2252.80;;;;;;4773475;30;20501;-82
2022/04/17 07:55:19;;;;;;;31.35;21.27;;;205.20;2252.80;;;;;;4786513;29;20033;-82
2022/04/17 08:00:48;;;;;;;28.20;17.98;;;205.20;2252.80;;;;;;4863166;29;20064;-82
2022/04/17 08:03:24;;;;;;;33.53;21.45;;;205.10;2252.80;;;;;;4843202;29;20411;-82
2022/04/17 08:05:51;;;;;;;32.08;18.08;;;205.10;2252.80;;;;;;4843434;29;20069;-81
2022/04/17 08:08:28;;;;;;;18.85;12.68;;;205.00;2252.80;;;;;;4844647;29;20030;-82
2022/04/17 08:10:55;;;;;;;21.48;15.02;;;205.10;2252.80;;;;;;4844979;29;20478;-80
2022/04/17 08:13:21;;;;;;;21.42;15.23;;;205.10;2252.80;;;;;;4843746;29;20026;-81
2022/04/17 08:15:47;;;;;;;21.45;17.25;;;205.70;2252.80;;;;;;4843407;29;20061;-79
2022/04/17 08:18:46;;;;;;;24.08;18.55;;;205.20;2252.80;;;;;;4843711;29;20026;-81
2022/04/17 08:21:13;;;;;;;26.70;19.98;;;205.20;2252.80;;;;;;4843428;29;20026;-82
2022/04/17 08:23:42;;;;;;;19.20;15.52;;;205.10;2252.80;;;;;;4843743;29;20082;-80
2022/04/17 08:26:08;;;;;;;17.50;13.82;;;205.20;2252.80;;;;;;4843681;29;20022;-79
2022/04/17 08:28:43;;;;;;;22.77;16.95;;;205.30;2252.80;;;;;;4843673;29;20375;-83
2022/04/17 08:31:10;;;;;;;27.08;18.25;;;205.40;2252.80;;;;;;4844651;29;20018;-80
2022/04/17 08:33:36;;;;;;;13.52;11.00;;;205.40;2252.80;;;;;;4843957;29;20105;-82
2022/04/17 08:36:05;;;;;;;30.30;21.95;;;205.50;2252.80;;;;;;4844195;29;20455;-80
2022/04/17 08:38:44;;;;;;;15.85;10.32;;;205.40;2252.80;;;;;;4844006;29;20032;-83
2022/04/17 08:41:23;;;;;;;14.38;10.75;;;205.60;2252.80;;;;;;4844915;29;20117;-81
2022/04/17 08:44:02;;;;;;;20.80;15.68;;;205.50;2252.80;;;;;;4844629;29;20026;-79
2022/04/17 08:50:40;;;;;;;18.27;12.82;;;205.70;2252.80;;;;;;4835056;29;20483;-81
2022/04/17 08:56:16;;;;;;;25.23;17.92;;;230.40;2252.80;;;;;;4841256;29;20060;-78
2022/04/17 08:58:42;;;;;;;27.88;19.30;;;230.50;2252.80;;;;;;4840584;29;20067;-80
2022/04/17 09:01:13;;;;;;;31.48;22.52;;;230.60;2252.80;;;;;;4841068;29;20533;-81
2022/04/17 09:03:40;;;;;;;26.00;17.60;;;230.60;2252.80;;;;;;4839742;29;20053;-80
2022/04/17 09:16:55;;;;;;;50.45;32.65;;;230.60;2252.80;;;;;;4805074;29;20038;-81
2022/04/17 09:19:51;;;;;;;36.33;22.73;;;230.60;2252.80;;;;;;4789752;29;20060;-80
2022/04/17 09:22:20;;;;;;;34.15;22.65;;;230.60;2252.80;;;;;;4823865;29;20069;-78
2022/04/17 09:25:42;;;;;;;;;;;;;;;;;;;;;
2022/04/17 10:03:09;;;;;;;;;;;;;;;;;;;;;
2022/04/17 10:06:18;;;;;;;30.63;22.45;;;231.30;2252.80;;;;;;4676884;30;20510;-83
2022/04/17 10:12:26;;;;;;;31.17;24.45;;;231.10;2252.80;;;;;;4714662;30;20442;-82
2022/04/17 10:14:52;;;;;;;31.55;24.27;;;230.90;2252.80;;;;;;4750000;30;20135;-80
2022/04/17 10:17:23;;;;;;;42.88;28.17;;;231.20;2252.80;;;;;;4808853;29;20124;-83
2022/04/17 10:20:02;;;;;;;23.55;17.83;;;231.10;2252.80;;;;;;4822117;29;20031;-84
2022/04/17 10:22:33;;;;;;;18.13;14.32;;;231.10;2252.80;;;;;;4820875;29;20031;-83
2022/04/17 10:25:03;;;;;;;15.70;13.65;;;231.20;2252.80;;;;;;4820750;29;20051;-83
2022/04/17 10:28:09;;;;;;;16.20;13.50;;;231.30;2252.80;;;;;;4811404;29;20027;-84
2022/04/17 10:34:53;;;;;;;17.98;12.80;;;231.30;2252.80;;;;;;4789639;29;20094;-84
2022/04/17 10:37:48;;;;;;;23.60;17.75;;;231.20;2252.80;;;;;;4781058;29;20499;-85
2022/04/17 10:40:20;;;;;;;18.90;15.18;;;231.30;2252.80;;;;;;4805422;29;20027;-83
2022/04/17 10:42:57;;;;;;;;;;;231.20;2252.80;;;;;;4835940;29;20023;-84
2022/04/17 10:45:25;;;;;;;24.50;15.85;;;231.10;2252.80;;;;;;4804358;29;19905;-83
2022/04/17 10:48:11;;;;;;;16.38;12.38;;;230.90;2252.80;;;;;;4790556;29;20035;-81
2022/04/17 10:50:50;;;;;;;14.65;10.20;;;230.60;2252.80;;;;;;4835655;29;20031;-82
2022/04/17 10:53:26;;;;;;;15.65;11.88;;;230.70;2252.80;;;;;;4805378;29;20045;-83
2022/04/17 10:56:22;;;;;;;26.58;18.90;;;230.80;2252.80;;;;;;4804656;29;20130;-85
2022/04/17 10:58:55;;;;;;;22.77;14.88;;;230.90;2252.80;;;;;;4801146;29;20046;-85
2022/04/17 11:01:42;;;;;;;21.75;14.75;;;230.80;2252.80;;;;;;4804665;29;20035;-83
2022/04/17 11:04:57;;;;;;;25.15;14.23;;;230.90;2252.80;;;;;;4836457;29;20035;-84
2022/04/17 11:07:31;;;;;;;25.73;18.98;;;230.90;2252.80;;;;;;4851966;29;20048;-81
2022/04/17 11:14:03;;;;;;;;;;;230.90;2252.80;;;;;;4785306;30;20106;-83
2022/04/17 11:17:12;;;;;;;23.67;15.35;;;230.60;2252.80;;;;;;4778456;29;19909;-80
2022/04/17 11:23:52;;;;;;;;;;;;;;;;;;;;;
2022/04/17 11:27:08;;;;;;;18.50;11.95;;;230.90;2252.80;;;;;;4826613;29;20464;-80
2022/04/17 11:30:37;;;;;;;19.02;12.10;;;230.80;2252.80;;;;;;4856651;29;20026;-84
2022/04/17 11:33:27;;;;;;;40.65;27.73;;;230.90;2252.80;;;;;;4806396;29;20026;-79
2022/04/17 11:39:31;;;;;;;35.28;26.63;;;230.40;2252.80;;;;;;4741797;29;20034;-79
2022/04/17 11:41:58;;;;;;;23.75;17.30;;;205.70;2252.80;;;;;;4791725;29;20023;-82
2022/04/17 11:48:28;;;;;;;15.43;11.80;;;230.40;2252.80;;;;;;4809145;29;20098;-87
2022/04/17 11:51:04;;;;;;;20.52;15.23;;;205.50;2252.80;;;;;;4757215;30;20389;-86
2022/04/17 11:53:35;;;;;;;18.10;12.95;;;205.50;2252.80;;;;;;4789647;29;20078;-84
2022/04/17 11:56:01;;;;;;;14.32;11.65;;;205.60;2252.80;;;;;;4795749;29;20488;-84
2022/04/17 11:58:49;;;;;;;18.00;13.93;;;205.50;2252.80;;;;;;4827441;29;20030;-86
2022/04/17 12:01:22;;;;;;;22.10;16.52;;;205.50;2252.80;;;;;;4826175;29;20042;-83
2022/04/17 12:04:18;;;;;;;14.63;11.15;;;205.60;2252.80;;;;;;4825479;29;20038;-85
2022/04/17 12:06:44;;;;;;;24.90;17.95;;;205.70;2252.80;;;;;;4824911;29;20046;-85
2022/04/17 12:09:12;;;;;;;24.02;18.73;;;230.50;2252.80;;;;;;4825004;29;20501;-83
2022/04/17 12:11:44;;;;;;;22.02;15.77;;;230.70;2252.80;;;;;;4825387;29;20027;-83
2022/04/17 12:14:14;;;;;;;29.00;19.73;;;230.80;2252.80;;;;;;4810562;29;20030;-83
2022/04/17 12:16:52;;;;;;;23.42;14.38;;;230.80;2252.80;;;;;;4825112;29;20022;-83
2022/04/17 12:19:18;;;;;;;29.92;20.02;;;230.70;2252.80;;;;;;4824706;29;20429;-86
2022/04/17 12:21:45;;;;;;;33.30;25.00;;;230.80;2252.80;;;;;;4825724;29;20030;-82
2022/04/17 12:24:11;;;;;;;29.40;21.13;;;231.00;2252.80;;;;;;4810563;29;20034;-84
2022/04/17 12:27:39;;;;;;;26.88;19.85;;;231.00;2252.80;;;;;;4825312;29;20034;-83
2022/04/17 12:42:08;;;;;;;44.35;26.77;;;230.90;2252.80;;;;;;4751987;30;20039;-86
2022/04/17 12:56:12;;;;;;;30.52;21.63;;;230.70;2252.80;;;;;;4647745;30;20061;-83
2022/04/17 12:58:59;;;;;;;28.50;20.17;;;230.70;2252.80;;;;;;4677321;30;20037;-83
2022/04/17 13:02:14;;;;;;;20.38;15.27;;;230.50;2252.80;;;;;;4677340;30;20034;-84
2022/04/17 13:04:45;;;;;;;26.17;19.88;;;205.70;2252.80;;;;;;4682072;30;20039;-82
2022/04/17 13:07:16;;;;;;;36.03;24.85;;;205.60;2252.80;;;;;;4747839;30;20583;-82
2022/04/17 13:09:55;;;;;;;31.13;22.48;;;230.50;2252.80;;;;;;4801730;29;20177;-82
2022/04/17 13:12:42;;;;;;;50.35;36.33;;;230.60;2252.80;;;;;;4802021;29;20046;-82
2022/04/17 13:15:29;;;;;;;52.35;36.72;;;230.60;2252.80;;;;;;4847147;29;20139;-80
2022/04/17 13:17:55;;;;;;;33.13;21.02;;;230.60;2252.80;;;;;;4854156;29;20057;-83
2022/04/17 13:20:32;;;;;;;32.67;20.98;;;230.60;2252.80;;;;;;4824310;29;20034;-84
2022/04/17 13:22:58;;;;;;;22.50;18.42;;;230.50;2252.80;;;;;;4823764;29;20038;-81
2022/04/17 13:25:30;;;;;;;21.83;17.25;;;230.50;2252.80;;;;;;4824278;29;20031;-82
2022/04/17 13:27:56;;;;;;;36.33;20.77;;;230.50;2252.80;;;;;;4836854;29;20451;-80
2022/04/17 13:30:22;;;;;;;42.10;27.30;;;230.40;2252.80;;;;;;4841844;29;20037;-81
2022/04/17 13:32:48;;;;;;;51.30;33.08;;;230.70;2252.80;;;;;;4841709;29;20169;-83
2022/04/17 13:35:15;;;;;;;32.53;21.80;;;230.50;2252.80;;;;;;4860054;29;20018;-80
2022/04/17 13:41:00;;;;;;;34.03;23.80;;;230.50;2252.80;;;;;;4843325;29;20387;-83
2022/04/17 13:46:28;;;;;;;45.88;26.88;;;230.40;2252.80;;;;;;4768340;30;20032;-83
2022/04/17 13:52:21;;;;;;;61.83;34.88;;;230.40;2252.80;;;;;;4842583;29;20028;-82
2022/04/17 13:55:20;;;;;;;49.47;33.95;;;230.40;2252.80;;;;;;4826199;29;20037;-83
2022/04/17 13:57:46;;;;;;;30.38;21.17;;;230.40;2252.80;;;;;;4835909;29;20060;-83
2022/04/17 14:00:12;;;;;;;33.03;21.90;;;230.40;2252.80;;;;;;4841227;29;20387;-83
2022/04/17 14:02:38;;;;;;;78.47;48.42;;;230.50;2252.80;;;;;;4841249;29;20030;-83
2022/04/17 14:05:06;;;;;;;54.13;33.88;;;230.40;2252.80;;;;;;4841254;29;20529;-83
2022/04/17 14:07:34;;;;;;;40.28;25.95;;;230.50;2252.80;;;;;;4841135;29;20054;-82
2022/04/17 14:10:01;;;;;;;30.75;22.33;;;230.40;2252.80;;;;;;4830146;29;20419;-80
2022/04/17 14:12:28;;;;;;;29.42;20.65;;;230.50;2252.80;;;;;;4841214;29;20030;-82
2022/04/17 14:14:57;;;;;;;24.35;17.83;;;230.50;2252.80;;;;;;4841591;29;20030;-80
2022/04/17 14:17:24;;;;;;;27.80;19.75;;;230.50;2252.80;;;;;;4841536;29;20064;-82
2022/04/17 14:19:54;;;;;;;37.67;27.10;;;230.50;2252.80;;;;;;4841462;29;20049;-82
2022/04/17 14:22:39;;;;;;;23.58;18.17;;;230.50;2252.80;;;;;;4826183;29;20026;-86
2022/04/17 14:25:06;;;;;;;53.67;35.80;;;230.40;2252.80;;;;;;4841646;29;20475;-84
2022/04/17 14:27:33;;;;;;;57.65;47.00;;;230.50;2252.80;;;;;;4835861;29;20026;-84
2022/04/17 14:30:40;;;;;;;40.88;32.15;;;230.50;2252.80;;;;;;4842289;29;20121;-83
2022/04/17 14:33:06;;;;;;;46.97;37.13;;;230.70;2252.80;;;;;;4823264;29;20084;-80
2022/04/17 14:35:38;;;;;;;34.50;26.98;;;230.50;2252.80;;;;;;4841017;29;20022;-84
2022/04/17 14:38:04;;;;;;;37.63;25.23;;;230.70;2252.80;;;;;;4811895;29;20034;-83
2022/04/17 14:40:30;;;;;;;34.45;26.55;;;230.60;2252.80;;;;;;4840973;29;20265;-81
2022/04/17 14:43:00;;;;;;;26.63;18.73;;;230.40;2252.80;;;;;;4840976;29;20098;-82
2022/04/17 14:45:59;;;;;;;38.97;29.17;;;230.50;2252.80;;;;;;4841593;29;20081;-83
2022/04/17 14:48:29;;;;;;;36.70;26.77;;;230.40;2252.80;;;;;;4840676;29;20029;-81
2022/04/17 14:50:56;;;;;;;33.53;26.05;;;230.50;2252.80;;;;;;4840849;29;20030;-82
2022/04/17 14:53:50;;;;;;;91.88;61.45;;;230.40;2252.80;;;;;;4840555;29;20022;-84
2022/04/17 14:56:22;;;;;;;33.13;25.15;;;205.60;2252.80;;;;;;4829055;29;20077;-83
2022/04/17 14:58:51;;;;;;;76.22;56.42;;;230.40;2252.80;;;;;;4843006;29;20030;-84
2022/04/17 15:01:17;;;;;;;40.88;36.47;;;230.40;2252.80;;;;;;4844115;29;20034;-80
2022/04/17 15:03:47;;;;;;;29.40;25.98;;;205.60;2252.80;;;;;;4844480;29;20037;-83
2022/04/17 15:06:13;;;;;;;41.97;37.70;;;205.70;2252.80;;;;;;4844501;29;20054;-82
2022/04/17 15:08:39;;;;;;;18.50;16.02;;;205.50;2252.80;;;;;;4844290;29;20034;-83
2022/04/17 15:11:05;;;;;;;18.55;16.45;;;205.50;2252.80;;;;;;4844401;29;20041;-82
2022/04/17 15:13:31;;;;;;;20.98;15.27;;;205.60;2252.80;;;;;;4844715;29;20387;-82
2022/04/17 15:15:57;;;;;;;28.80;23.40;;;205.70;2252.80;;;;;;4843994;29;20062;-79
2022/04/17 15:18:30;;;;;;;35.13;27.65;;;205.60;2252.80;;;;;;4844211;29;20034;-81
2022/04/17 15:20:57;;;;;;;44.60;30.50;;;205.70;2252.80;;;;;;4843686;29;20057;-82
2022/04/17 15:23:26;;;;;;;75.10;49.10;;;205.60;2252.80;;;;;;4843791;29;20026;-84
2022/04/17 15:26:40;;;;;;;89.07;57.35;;;205.40;2252.80;;;;;;4844045;29;20030;-81
2022/04/17 15:29:07;;;;;;;41.42;30.13;;;205.40;2252.80;;;;;;4843657;29;20025;-85
2022/04/17 15:31:38;;;;;;;171.00;94.47;;;205.70;2252.80;;;;;;4839113;29;20030;-83
2022/04/17 15:34:25;;;;;;;63.78;39.47;;;205.70;2252.80;;;;;;4845420;29;20022;-84
2022/04/17 15:37:00;;;;;;;32.92;26.27;;;230.80;2252.80;;;;;;4843491;29;20532;-86
2022/04/17 15:39:31;;;;;;;31.60;21.17;;;205.60;2252.80;;;;;;4842540;29;20026;-85
2022/04/17 15:42:03;;;;;;;36.22;24.77;;;205.70;2252.80;;;;;;4846990;29;20053;-84
2022/04/17 15:50:01;;;;;;;16.95;13.05;;;230.60;2252.80;;;;;;4863162;29;20040;-80
2022/04/17 15:52:30;;;;;;;39.08;25.52;;;230.60;2252.80;;;;;;4816445;29;20533;-82
2022/04/17 15:54:59;;;;;;;87.55;45.40;;;230.60;2252.80;;;;;;4862644;29;20033;-82
2022/04/17 15:57:26;;;;;;;68.60;38.22;;;230.40;2252.80;;;;;;4845682;29;20423;-85
2022/04/17 15:59:56;;;;;;;86.07;49.42;;;205.70;2252.80;;;;;;4846338;29;20085;-81
2022/04/17 16:03:00;;;;;;;107.78;66.38;;;230.60;2252.80;;;;;;4817008;29;20058;-86
2022/04/17 16:05:28;;;;;;;40.20;28.17;;;230.60;2252.80;;;;;;4790343;29;20027;-81
2022/04/17 16:08:20;;;;;;;47.88;35.85;;;230.60;2252.80;;;;;;4791015;29;20110;-85
2022/04/17 16:11:04;;;;;;;50.83;37.10;;;230.50;2252.80;;;;;;4806847;29;20142;-85
2022/04/17 16:13:44;;;;;;;39.20;29.15;;;230.60;2252.80;;;;;;4791823;29;20031;-84
2022/04/17 16:16:30;;;;;;;31.67;20.63;;;230.70;2252.80;;;;;;4806973;29;20073;-83
2022/04/17 16:18:58;;;;;;;37.60;30.48;;;230.60;2252.80;;;;;;4791490;29;20023;-80